Terminal Aerodrome Forecast
Issued by NWS Sioux Falls, SD

Home | Current Version | Previous Version | Graphics & Text | Print | Product List | Glossary On
Versions: 1 2 3 4 5 6 7 8 9 10 11 12 13 14
000
FTUS43 KFSD 182340
TAFHON
TAF
KHON 182340Z 1900/1924 16010KT P6SM SCT250
     FM190600 17010KT P6SM BKN150 WS013/21042KT
     FM190900 18007KT P6SM BKN200
     FM191400 23008KT P6SM SKC
     FM191900 32012G18KT P6SM SKC=

USA.gov is the U.S. government's official web portal to all federal, state and local government web resources and services.